UAE922 HECA-OMDB
Flight info
| Callsign | UAE922 |
|---|---|
| Flight time | 3h 5m |
| Altitude | 41000 |
| Route | CVO DCT SHM L677 DARAX DCT WEJ M872 BDB Y214 RAPMA DCT SBOB3 DCT TANSU DCT LUDID DCT KURTA DCT MUSAP DCT IMPED |
| Aircraft | A359/H-SDE2E3GHIJ3J4J5LM1ORWXY/LB1D1 |
Departure
| Time | 2026-04-22 23:54 |
|---|---|
| Airport | Cairo International Airport (HECA) |
Arrival
| Time | 2026-04-23 03:00 |
|---|---|
| Airport | Dubai International Airport (OMDB) |
| Time | Latitude | Longitude | Altitude | Speed | Heading |
|---|---|---|---|---|---|
| 2026-04-22 23:23 | 30.11239 | 31.40226 | 380 ft | 0 kts | 196° |
| 2026-04-22 23:44 | 30.11247 | 31.40229 | 380 ft | 4 kts | 196° |
| 2026-04-22 23:45 | 30.11273 | 31.40237 | 380 ft | 4 kts | 188° |
| 2026-04-22 23:45 | 30.11296 | 31.40238 | 380 ft | 4 kts | 159° |
| 2026-04-22 23:45 | 30.11318 | 31.40220 | 380 ft | 4 kts | 136° |
| 2026-04-22 23:45 | 30.11331 | 31.40206 | 380 ft | 4 kts | 139° |
| 2026-04-22 23:46 | 30.11352 | 31.40186 | 380 ft | 4 kts | 144° |
| 2026-04-22 23:46 | 30.11374 | 31.40169 | 380 ft | 4 kts | 150° |
| 2026-04-22 23:46 | 30.11382 | 31.40164 | 380 ft | 4 kts | 151° |
| 2026-04-22 23:49 | 30.11374 | 31.40169 | 380 ft | 6 kts | 152° |
| 2026-04-22 23:49 | 30.11323 | 31.40224 | 380 ft | 11 kts | 115° |
| 2026-04-22 23:50 | 30.11294 | 31.40317 | 380 ft | 13 kts | 107° |
| 2026-04-22 23:50 | 30.11245 | 31.40413 | 380 ft | 16 kts | 136° |
| 2026-04-22 23:50 | 30.11138 | 31.40517 | 380 ft | 22 kts | 140° |
| 2026-04-22 23:50 | 30.11027 | 31.40618 | 380 ft | 15 kts | 160° |
| 2026-04-22 23:51 | 30.10940 | 31.40562 | 380 ft | 18 kts | 227° |
| 2026-04-22 23:51 | 30.10839 | 31.40430 | 380 ft | 24 kts | 229° |
| 2026-04-22 23:51 | 30.10728 | 31.40283 | 380 ft | 25 kts | 229° |
| 2026-04-22 23:51 | 30.10608 | 31.40124 | 380 ft | 27 kts | 229° |
| 2026-04-22 23:52 | 30.10482 | 31.39957 | 380 ft | 28 kts | 229° |
| 2026-04-22 23:52 | 30.10361 | 31.39798 | 380 ft | 26 kts | 229° |
| 2026-04-22 23:52 | 30.10267 | 31.39674 | 380 ft | 18 kts | 229° |
| 2026-04-22 23:52 | 30.10189 | 31.39584 | 380 ft | 13 kts | 206° |
| 2026-04-22 23:53 | 30.10108 | 31.39615 | 380 ft | 14 kts | 140° |
| 2026-04-22 23:53 | 30.10028 | 31.39693 | 380 ft | 18 kts | 133° |
| 2026-04-22 23:53 | 30.09998 | 31.39821 | 380 ft | 9 kts | 94° |
| 2026-04-22 23:53 | 30.10018 | 31.39888 | 377 ft | 10 kts | 51° |
| 2026-04-22 23:54 | 30.10109 | 31.40013 | 378 ft | 46 kts | 50° |
| 2026-04-22 23:54 | 30.10474 | 31.40494 | 384 ft | 111 kts | 49° |
| 2026-04-22 23:54 | 30.11113 | 31.41336 | 452 ft | 159 kts | 49° |
| 2026-04-22 23:54 | 30.11815 | 31.42260 | 1220 ft | 152 kts | 48° |
| 2026-04-22 23:55 | 30.12547 | 31.43212 | 1833 ft | 165 kts | 49° |
| 2026-04-22 23:55 | 30.13061 | 31.44466 | 2119 ft | 193 kts | 84° |
| 2026-04-22 23:55 | 30.12942 | 31.46095 | 2497 ft | 215 kts | 97° |
| 2026-04-22 23:55 | 30.12377 | 31.47815 | 2783 ft | 246 kts | 117° |
| 2026-04-22 23:56 | 30.11331 | 31.49468 | 3372 ft | 262 kts | 130° |
| 2026-04-22 23:56 | 30.10019 | 31.50974 | 4090 ft | 270 kts | 137° |
| 2026-04-22 23:56 | 30.08572 | 31.52407 | 4690 ft | 278 kts | 139° |
| 2026-04-22 23:56 | 30.07064 | 31.53828 | 5371 ft | 282 kts | 140° |
| 2026-04-22 23:57 | 30.05546 | 31.55269 | 6279 ft | 283 kts | 140° |
| 2026-04-22 23:57 | 30.04032 | 31.56740 | 7119 ft | 286 kts | 140° |
| 2026-04-22 23:57 | 30.02516 | 31.58252 | 7985 ft | 290 kts | 139° |
| 2026-04-22 23:57 | 30.00998 | 31.59799 | 8884 ft | 293 kts | 139° |
| 2026-04-22 23:58 | 29.99469 | 31.61375 | 9770 ft | 296 kts | 139° |
| 2026-04-22 23:58 | 29.97916 | 31.62986 | 10456 ft | 307 kts | 139° |
| 2026-04-22 23:58 | 29.96269 | 31.64692 | 10845 ft | 328 kts | 139° |
| 2026-04-22 23:58 | 29.94520 | 31.66501 | 11205 ft | 347 kts | 139° |
| 2026-04-22 23:59 | 29.92697 | 31.68382 | 11575 ft | 364 kts | 139° |
| 2026-04-22 23:59 | 29.90758 | 31.70381 | 12191 ft | 373 kts | 139° |
| 2026-04-22 23:59 | 29.88810 | 31.72389 | 12891 ft | 378 kts | 139° |
| 2026-04-22 23:59 | 29.86863 | 31.74403 | 13635 ft | 383 kts | 138° |
| 2026-04-23 00:00 | 29.83273 | 31.79034 | 14923 ft | 393 kts | 130° |
| 2026-04-23 00:00 | 29.81557 | 31.81521 | 15562 ft | 398 kts | 129° |
| 2026-04-23 00:00 | 29.79852 | 31.84062 | 16218 ft | 403 kts | 128° |
| 2026-04-23 00:01 | 29.78139 | 31.86643 | 16863 ft | 409 kts | 128° |
| 2026-04-23 00:01 | 29.76401 | 31.89262 | 17514 ft | 414 kts | 129° |
| 2026-04-23 00:01 | 29.74641 | 31.91904 | 18152 ft | 419 kts | 129° |
| 2026-04-23 00:01 | 29.72856 | 31.94571 | 18719 ft | 423 kts | 129° |
| 2026-04-23 00:02 | 29.71044 | 31.97269 | 19301 ft | 427 kts | 129° |
| 2026-04-23 00:02 | 29.69214 | 31.99984 | 19880 ft | 431 kts | 129° |
| 2026-04-23 00:02 | 29.67365 | 32.02724 | 20485 ft | 435 kts | 129° |
| 2026-04-23 00:02 | 29.65497 | 32.05490 | 21076 ft | 440 kts | 129° |
| 2026-04-23 00:03 | 29.63635 | 32.08245 | 21677 ft | 444 kts | 130° |
| 2026-04-23 00:03 | 29.61734 | 32.11055 | 22274 ft | 448 kts | 130° |
| 2026-04-23 00:03 | 29.59814 | 32.13892 | 22869 ft | 453 kts | 130° |
| 2026-04-23 00:03 | 29.57943 | 32.16656 | 23443 ft | 457 kts | 130° |
| 2026-04-23 00:04 | 29.55982 | 32.19551 | 23937 ft | 462 kts | 130° |
| 2026-04-23 00:04 | 29.54000 | 32.22475 | 24424 ft | 466 kts | 130° |
| 2026-04-23 00:04 | 29.51999 | 32.25426 | 24894 ft | 470 kts | 130° |
| 2026-04-23 00:04 | 29.49981 | 32.28398 | 25395 ft | 474 kts | 130° |
| 2026-04-23 00:05 | 29.47944 | 32.31396 | 25868 ft | 478 kts | 130° |
| 2026-04-23 00:05 | 29.45889 | 32.34420 | 26350 ft | 482 kts | 131° |
| 2026-04-23 00:05 | 29.43816 | 32.37466 | 26821 ft | 486 kts | 131° |
| 2026-04-23 00:05 | 29.41722 | 32.40540 | 27290 ft | 490 kts | 131° |
| 2026-04-23 00:06 | 29.39616 | 32.43630 | 27738 ft | 494 kts | 131° |
| 2026-04-23 00:06 | 29.37490 | 32.46748 | 28170 ft | 498 kts | 131° |
| 2026-04-23 00:06 | 29.35347 | 32.49889 | 28658 ft | 502 kts | 131° |
| 2026-04-23 00:06 | 29.33195 | 32.53042 | 29100 ft | 505 kts | 131° |
| 2026-04-23 00:07 | 29.31018 | 32.56228 | 29512 ft | 509 kts | 131° |
| 2026-04-23 00:07 | 29.28821 | 32.59438 | 29914 ft | 513 kts | 132° |
| 2026-04-23 00:07 | 29.26616 | 32.62660 | 30277 ft | 517 kts | 132° |
| 2026-04-23 00:07 | 29.24375 | 32.65899 | 30628 ft | 519 kts | 132° |
| 2026-04-23 00:08 | 29.22118 | 32.69136 | 30984 ft | 522 kts | 133° |
| 2026-04-23 00:08 | 29.19843 | 32.72391 | 31322 ft | 524 kts | 133° |
| 2026-04-23 00:08 | 29.17561 | 32.75655 | 31631 ft | 527 kts | 133° |
| 2026-04-23 00:08 | 29.15352 | 32.78816 | 31951 ft | 530 kts | 133° |
| 2026-04-23 00:09 | 29.13045 | 32.82118 | 32249 ft | 532 kts | 133° |
| 2026-04-23 00:09 | 29.10735 | 32.85425 | 32624 ft | 533 kts | 133° |
| 2026-04-23 00:09 | 29.08456 | 32.88689 | 33040 ft | 532 kts | 133° |
| 2026-04-23 00:09 | 29.06151 | 32.91988 | 33462 ft | 531 kts | 133° |
| 2026-04-23 00:10 | 29.03843 | 32.95289 | 33884 ft | 530 kts | 133° |
| 2026-04-23 00:10 | 29.01543 | 32.98576 | 34226 ft | 530 kts | 134° |
| 2026-04-23 00:10 | 28.99233 | 33.01871 | 34509 ft | 531 kts | 134° |
| 2026-04-23 00:10 | 28.96923 | 33.05163 | 34807 ft | 532 kts | 134° |
| 2026-04-23 00:11 | 28.94610 | 33.08456 | 35092 ft | 532 kts | 134° |
| 2026-04-23 00:11 | 28.92289 | 33.11759 | 35371 ft | 533 kts | 134° |
| 2026-04-23 00:11 | 28.89968 | 33.15060 | 35647 ft | 533 kts | 134° |
| 2026-04-23 00:11 | 28.87646 | 33.18359 | 35922 ft | 534 kts | 134° |
| 2026-04-23 00:12 | 28.85318 | 33.21664 | 36182 ft | 535 kts | 135° |
| 2026-04-23 00:12 | 28.82986 | 33.24973 | 36444 ft | 536 kts | 135° |
| 2026-04-23 00:12 | 28.80649 | 33.28285 | 36708 ft | 536 kts | 135° |
| 2026-04-23 00:12 | 28.78306 | 33.31605 | 36973 ft | 537 kts | 135° |
| 2026-04-23 00:13 | 28.75968 | 33.34915 | 37228 ft | 537 kts | 135° |
| 2026-04-23 00:13 | 28.73619 | 33.38238 | 37494 ft | 538 kts | 135° |
| 2026-04-23 00:13 | 28.71273 | 33.41554 | 37745 ft | 538 kts | 135° |
| 2026-04-23 00:13 | 28.68921 | 33.44873 | 37975 ft | 539 kts | 135° |
| 2026-04-23 00:14 | 28.66572 | 33.48188 | 38216 ft | 539 kts | 136° |
| 2026-04-23 00:14 | 28.64209 | 33.51518 | 38473 ft | 540 kts | 136° |
| 2026-04-23 00:14 | 28.61851 | 33.54840 | 38684 ft | 540 kts | 136° |
| 2026-04-23 00:14 | 28.59486 | 33.58170 | 38856 ft | 541 kts | 136° |
| 2026-04-23 00:15 | 28.57117 | 33.61503 | 38922 ft | 542 kts | 136° |
| 2026-04-23 00:15 | 28.52382 | 33.68155 | 38918 ft | 542 kts | 136° |
| 2026-04-23 00:16 | 28.47651 | 33.74795 | 38889 ft | 539 kts | 136° |
| 2026-04-23 00:16 | 28.42909 | 33.81432 | 38905 ft | 542 kts | 136° |
| 2026-04-23 00:17 | 28.38160 | 33.88067 | 38900 ft | 541 kts | 136° |
| 2026-04-23 00:17 | 28.33440 | 33.94659 | 38911 ft | 542 kts | 136° |
| 2026-04-23 00:18 | 28.28680 | 34.01298 | 38905 ft | 543 kts | 136° |
| 2026-04-23 00:18 | 28.23900 | 34.07942 | 38918 ft | 544 kts | 136° |
| 2026-04-23 00:19 | 28.19110 | 34.14598 | 38898 ft | 545 kts | 137° |
| 2026-04-23 00:19 | 28.14311 | 34.21254 | 38867 ft | 545 kts | 137° |
| 2026-04-23 00:20 | 28.09511 | 34.27904 | 38858 ft | 545 kts | 137° |
| 2026-04-23 00:20 | 28.04706 | 34.34550 | 38862 ft | 547 kts | 137° |
| 2026-04-23 00:21 | 27.99824 | 34.41130 | 38866 ft | 541 kts | 143° |
| 2026-04-23 00:21 | 27.94515 | 34.47020 | 38864 ft | 537 kts | 145° |
| 2026-04-23 00:22 | 27.89083 | 34.52802 | 38853 ft | 536 kts | 145° |
| 2026-04-23 00:22 | 27.83634 | 34.58563 | 38846 ft | 537 kts | 145° |
| 2026-04-23 00:23 | 27.78188 | 34.64333 | 38836 ft | 537 kts | 145° |
| 2026-04-23 00:23 | 27.72740 | 34.70109 | 38826 ft | 537 kts | 145° |
| 2026-04-23 00:24 | 27.67295 | 34.75878 | 38820 ft | 537 kts | 145° |
| 2026-04-23 00:24 | 27.61847 | 34.81641 | 38815 ft | 537 kts | 145° |
| 2026-04-23 00:25 | 27.56394 | 34.87400 | 38812 ft | 537 kts | 146° |
| 2026-04-23 00:25 | 27.50943 | 34.93149 | 38806 ft | 537 kts | 146° |
| 2026-04-23 00:26 | 27.45657 | 34.99170 | 38798 ft | 543 kts | 141° |
| 2026-04-23 00:26 | 27.40536 | 35.05428 | 38795 ft | 543 kts | 141° |
| 2026-04-23 00:27 | 27.35394 | 35.11657 | 38792 ft | 543 kts | 141° |
| 2026-04-23 00:27 | 27.30218 | 35.17825 | 38789 ft | 542 kts | 142° |
| 2026-04-23 00:28 | 27.25018 | 35.23975 | 38794 ft | 542 kts | 142° |
| 2026-04-23 00:28 | 27.19817 | 35.30115 | 38790 ft | 542 kts | 142° |
| 2026-04-23 00:29 | 27.14616 | 35.36251 | 38789 ft | 542 kts | 142° |
| 2026-04-23 00:29 | 27.09412 | 35.42384 | 38783 ft | 543 kts | 142° |
| 2026-04-23 00:30 | 27.04206 | 35.48512 | 38782 ft | 543 kts | 142° |
| 2026-04-23 00:30 | 26.98994 | 35.54636 | 38784 ft | 543 kts | 142° |
| 2026-04-23 00:31 | 26.93777 | 35.60758 | 38779 ft | 543 kts | 142° |
| 2026-04-23 00:31 | 26.88587 | 35.66840 | 38778 ft | 543 kts | 142° |
| 2026-04-23 00:32 | 26.83371 | 35.72943 | 38779 ft | 543 kts | 142° |
| 2026-04-23 00:32 | 26.78140 | 35.79056 | 38778 ft | 543 kts | 142° |
| 2026-04-23 00:33 | 26.72910 | 35.85161 | 38774 ft | 543 kts | 142° |
| 2026-04-23 00:33 | 26.67672 | 35.91263 | 38784 ft | 543 kts | 142° |
| 2026-04-23 00:34 | 26.62436 | 35.97356 | 38778 ft | 543 kts | 143° |
| 2026-04-23 00:34 | 26.58081 | 36.02418 | 38780 ft | 543 kts | 143° |
| 2026-04-23 00:35 | 26.52842 | 36.08500 | 38768 ft | 543 kts | 143° |
| 2026-04-23 00:35 | 26.47596 | 36.14580 | 38774 ft | 543 kts | 143° |
| 2026-04-23 00:36 | 26.42354 | 36.20648 | 38772 ft | 543 kts | 143° |
| 2026-04-23 00:36 | 26.37106 | 36.26714 | 38774 ft | 543 kts | 143° |
| 2026-04-23 00:37 | 26.31852 | 36.32779 | 38771 ft | 543 kts | 143° |
| 2026-04-23 00:37 | 26.26607 | 36.38824 | 38770 ft | 543 kts | 143° |
| 2026-04-23 00:38 | 26.21389 | 36.44830 | 38773 ft | 543 kts | 143° |
| 2026-04-23 00:38 | 26.16627 | 36.51556 | 38775 ft | 560 kts | 128° |
| 2026-04-23 00:39 | 26.12753 | 36.59104 | 38772 ft | 563 kts | 125° |
| 2026-04-23 00:39 | 26.09046 | 36.66733 | 38772 ft | 564 kts | 125° |
| 2026-04-23 00:40 | 26.05307 | 36.74410 | 38771 ft | 564 kts | 125° |
| 2026-04-23 00:40 | 26.01541 | 36.82054 | 38777 ft | 564 kts | 126° |
| 2026-04-23 00:41 | 25.97757 | 36.89692 | 38786 ft | 564 kts | 126° |
| 2026-04-23 00:41 | 25.93964 | 36.97327 | 38789 ft | 564 kts | 126° |
| 2026-04-23 00:42 | 25.90172 | 37.04954 | 38792 ft | 564 kts | 126° |
| 2026-04-23 00:42 | 25.86376 | 37.12578 | 38795 ft | 564 kts | 126° |
| 2026-04-23 00:43 | 25.82573 | 37.20204 | 38806 ft | 564 kts | 126° |
| 2026-04-23 00:43 | 25.78773 | 37.27816 | 38808 ft | 564 kts | 126° |
| 2026-04-23 00:44 | 25.74975 | 37.35448 | 38814 ft | 564 kts | 126° |
| 2026-04-23 00:44 | 25.71183 | 37.43067 | 38820 ft | 564 kts | 126° |
| 2026-04-23 00:45 | 25.67382 | 37.50684 | 38818 ft | 564 kts | 126° |
| 2026-04-23 00:45 | 25.63582 | 37.58285 | 38823 ft | 563 kts | 126° |
| 2026-04-23 00:46 | 25.59791 | 37.65853 | 38820 ft | 562 kts | 126° |
| 2026-04-23 00:46 | 25.55986 | 37.73436 | 38818 ft | 562 kts | 126° |
| 2026-04-23 00:47 | 25.52186 | 37.80996 | 38814 ft | 562 kts | 126° |
| 2026-04-23 00:47 | 25.48381 | 37.88553 | 38810 ft | 562 kts | 126° |
| 2026-04-23 00:48 | 25.44578 | 37.96096 | 38800 ft | 562 kts | 126° |
| 2026-04-23 00:48 | 25.40767 | 38.03639 | 38798 ft | 562 kts | 126° |
| 2026-04-23 00:49 | 25.36948 | 38.11189 | 38797 ft | 562 kts | 126° |
| 2026-04-23 00:49 | 25.33151 | 38.18685 | 38799 ft | 562 kts | 126° |
| 2026-04-23 00:50 | 25.29331 | 38.26210 | 38798 ft | 562 kts | 126° |
| 2026-04-23 00:50 | 25.25502 | 38.33740 | 38804 ft | 562 kts | 126° |
| 2026-04-23 00:51 | 25.21670 | 38.41267 | 38812 ft | 562 kts | 126° |
| 2026-04-23 00:51 | 25.17830 | 38.48794 | 38814 ft | 562 kts | 126° |
| 2026-04-23 00:52 | 25.13991 | 38.56311 | 38816 ft | 562 kts | 126° |
| 2026-04-23 00:52 | 25.10148 | 38.63808 | 38823 ft | 561 kts | 126° |
| 2026-04-23 00:53 | 25.06300 | 38.71300 | 38826 ft | 561 kts | 126° |
| 2026-04-23 00:53 | 25.02453 | 38.78778 | 38829 ft | 561 kts | 126° |
| 2026-04-23 00:54 | 24.98595 | 38.86270 | 38835 ft | 561 kts | 127° |
| 2026-04-23 00:54 | 24.94737 | 38.93751 | 38847 ft | 562 kts | 126° |
| 2026-04-23 00:55 | 24.90871 | 39.01227 | 38850 ft | 561 kts | 126° |
| 2026-04-23 00:55 | 24.86998 | 39.08701 | 38853 ft | 561 kts | 126° |
| 2026-04-23 00:56 | 24.83130 | 39.16156 | 38859 ft | 561 kts | 126° |
| 2026-04-23 00:56 | 24.79263 | 39.23606 | 38861 ft | 560 kts | 126° |
| 2026-04-23 00:57 | 24.75420 | 39.30991 | 38866 ft | 560 kts | 126° |
| 2026-04-23 00:57 | 24.71542 | 39.38427 | 38872 ft | 560 kts | 126° |
| 2026-04-23 00:58 | 24.67670 | 39.45847 | 38880 ft | 559 kts | 126° |
| 2026-04-23 00:58 | 24.63791 | 39.53266 | 38880 ft | 559 kts | 126° |
| 2026-04-23 00:59 | 24.59913 | 39.60673 | 38880 ft | 559 kts | 126° |
| 2026-04-23 00:59 | 24.56156 | 39.68170 | 38893 ft | 566 kts | 119° |
| 2026-04-23 00:59 | 24.54849 | 39.72284 | 38884 ft | 574 kts | 107° |
| 2026-04-23 01:00 | 24.54130 | 39.76619 | 38881 ft | 577 kts | 101° |
| 2026-04-23 01:00 | 24.53196 | 39.85350 | 38886 ft | 581 kts | 98° |
| 2026-04-23 01:01 | 24.52424 | 39.94194 | 38886 ft | 581 kts | 98° |
| 2026-04-23 01:01 | 24.51623 | 40.03026 | 38885 ft | 581 kts | 98° |
| 2026-04-23 01:02 | 24.50773 | 40.11862 | 38890 ft | 582 kts | 98° |
| 2026-04-23 01:02 | 24.49902 | 40.20694 | 38886 ft | 582 kts | 98° |
| 2026-04-23 01:03 | 24.49022 | 40.29568 | 38883 ft | 583 kts | 98° |
| 2026-04-23 01:03 | 24.48142 | 40.38409 | 38884 ft | 583 kts | 98° |
| 2026-04-23 01:04 | 24.47265 | 40.47197 | 38886 ft | 583 kts | 98° |
| 2026-04-23 01:04 | 24.45930 | 40.60462 | 38889 ft | 583 kts | 98° |
| 2026-04-23 01:05 | 24.45033 | 40.69300 | 38888 ft | 583 kts | 98° |
| 2026-04-23 01:05 | 24.44129 | 40.78141 | 38892 ft | 583 kts | 98° |
| 2026-04-23 01:06 | 24.43219 | 40.86988 | 38894 ft | 583 kts | 98° |
| 2026-04-23 01:06 | 24.42303 | 40.95843 | 38897 ft | 582 kts | 98° |
| 2026-04-23 01:07 | 24.41386 | 41.04666 | 38900 ft | 582 kts | 98° |
| 2026-04-23 01:07 | 24.40473 | 41.13447 | 38898 ft | 582 kts | 98° |
| 2026-04-23 01:08 | 24.39546 | 41.22270 | 38902 ft | 582 kts | 98° |
| 2026-04-23 01:08 | 24.38611 | 41.31099 | 38903 ft | 582 kts | 98° |
| 2026-04-23 01:09 | 24.37673 | 41.39924 | 38907 ft | 583 kts | 98° |
| 2026-04-23 01:09 | 24.36728 | 41.48768 | 38904 ft | 583 kts | 98° |
| 2026-04-23 01:10 | 24.35784 | 41.57561 | 38906 ft | 584 kts | 98° |
| 2026-04-23 01:10 | 24.34829 | 41.66413 | 38902 ft | 584 kts | 98° |
| 2026-04-23 01:11 | 24.33866 | 41.75285 | 38900 ft | 584 kts | 98° |
| 2026-04-23 01:11 | 24.32581 | 41.84060 | 38901 ft | 581 kts | 108° |
| 2026-04-23 01:12 | 24.30485 | 41.92556 | 38895 ft | 580 kts | 109° |
| 2026-04-23 01:12 | 24.28238 | 42.01040 | 38900 ft | 579 kts | 109° |
| 2026-04-23 01:13 | 24.25971 | 42.09523 | 38891 ft | 579 kts | 109° |
| 2026-04-23 01:13 | 24.23721 | 42.17994 | 38897 ft | 578 kts | 109° |
| 2026-04-23 01:14 | 24.21481 | 42.26450 | 38892 ft | 578 kts | 109° |
| 2026-04-23 01:14 | 24.19240 | 42.34898 | 38898 ft | 577 kts | 109° |
| 2026-04-23 01:15 | 24.16998 | 42.43321 | 38905 ft | 576 kts | 109° |
| 2026-04-23 01:15 | 24.14750 | 42.51745 | 38908 ft | 576 kts | 109° |
| 2026-04-23 01:16 | 24.12515 | 42.60097 | 38910 ft | 576 kts | 109° |
| 2026-04-23 01:16 | 24.10259 | 42.68510 | 38912 ft | 576 kts | 109° |
| 2026-04-23 01:17 | 24.08000 | 42.76914 | 38915 ft | 575 kts | 109° |
| 2026-04-23 01:17 | 24.05738 | 42.85313 | 38921 ft | 575 kts | 109° |
| 2026-04-23 01:18 | 24.03474 | 42.93703 | 38924 ft | 575 kts | 109° |
| 2026-04-23 01:18 | 24.01204 | 43.02085 | 38926 ft | 574 kts | 110° |
| 2026-04-23 01:19 | 23.98930 | 43.10457 | 38932 ft | 574 kts | 109° |
| 2026-04-23 01:19 | 23.96656 | 43.18812 | 38935 ft | 573 kts | 109° |
| 2026-04-23 01:20 | 23.94380 | 43.27156 | 38936 ft | 573 kts | 110° |
| 2026-04-23 01:20 | 23.92118 | 43.35435 | 38938 ft | 572 kts | 110° |
| 2026-04-23 01:21 | 23.89838 | 43.43757 | 38934 ft | 571 kts | 110° |
| 2026-04-23 01:21 | 23.87942 | 43.50664 | 38937 ft | 570 kts | 110° |
| 2026-04-23 01:22 | 23.85663 | 43.58947 | 38928 ft | 569 kts | 110° |
| 2026-04-23 01:22 | 23.83379 | 43.67227 | 38924 ft | 568 kts | 110° |
| 2026-04-23 01:23 | 23.81095 | 43.75491 | 39003 ft | 568 kts | 110° |
| 2026-04-23 01:23 | 23.79949 | 43.79629 | 39228 ft | 567 kts | 110° |
| 2026-04-23 01:23 | 23.78809 | 43.83743 | 39483 ft | 566 kts | 110° |
| 2026-04-23 01:24 | 23.77762 | 43.87892 | 39691 ft | 568 kts | 104° |
| 2026-04-23 01:24 | 23.77181 | 43.92157 | 39904 ft | 568 kts | 98° |
| 2026-04-23 01:24 | 23.76778 | 43.96447 | 40115 ft | 568 kts | 96° |
| 2026-04-23 01:24 | 23.76439 | 44.00748 | 40321 ft | 568 kts | 96° |
| 2026-04-23 01:25 | 23.76134 | 44.05036 | 40527 ft | 567 kts | 95° |
| 2026-04-23 01:25 | 23.75836 | 44.09326 | 40726 ft | 567 kts | 95° |
| 2026-04-23 01:25 | 23.75535 | 44.13620 | 40876 ft | 567 kts | 95° |
| 2026-04-23 01:25 | 23.75227 | 44.17902 | 40900 ft | 567 kts | 96° |
| 2026-04-23 01:26 | 23.74589 | 44.26475 | 40900 ft | 566 kts | 96° |
| 2026-04-23 01:26 | 23.73937 | 44.35035 | 40904 ft | 566 kts | 96° |
| 2026-04-23 01:27 | 23.73283 | 44.43538 | 40905 ft | 566 kts | 96° |
| 2026-04-23 01:27 | 23.72617 | 44.52146 | 40906 ft | 566 kts | 96° |
| 2026-04-23 01:28 | 23.71953 | 44.60693 | 40909 ft | 565 kts | 96° |
| 2026-04-23 01:28 | 23.71288 | 44.69179 | 40907 ft | 565 kts | 96° |
| 2026-04-23 01:29 | 23.70614 | 44.77731 | 40906 ft | 565 kts | 96° |
| 2026-04-23 01:29 | 23.69935 | 44.86272 | 40908 ft | 565 kts | 96° |
| 2026-04-23 01:30 | 23.69252 | 44.94817 | 40906 ft | 565 kts | 96° |
| 2026-04-23 01:30 | 23.68563 | 45.03362 | 40893 ft | 566 kts | 96° |
| 2026-04-23 01:31 | 23.67868 | 45.11917 | 40890 ft | 566 kts | 96° |
| 2026-04-23 01:31 | 23.67169 | 45.20466 | 40886 ft | 566 kts | 96° |
| 2026-04-23 01:32 | 23.66465 | 45.29025 | 40883 ft | 566 kts | 96° |
| 2026-04-23 01:32 | 23.65754 | 45.37586 | 40880 ft | 567 kts | 96° |
| 2026-04-23 01:33 | 23.65043 | 45.46094 | 40878 ft | 567 kts | 96° |
| 2026-04-23 01:33 | 23.64324 | 45.54653 | 40871 ft | 567 kts | 96° |
| 2026-04-23 01:34 | 23.63601 | 45.63203 | 40868 ft | 566 kts | 96° |
| 2026-04-23 01:34 | 23.62876 | 45.71763 | 40871 ft | 566 kts | 96° |
| 2026-04-23 01:35 | 23.62144 | 45.80310 | 40862 ft | 566 kts | 96° |
| 2026-04-23 01:35 | 23.61405 | 45.88856 | 40862 ft | 566 kts | 96° |
| 2026-04-23 01:36 | 23.60662 | 45.97405 | 40862 ft | 566 kts | 96° |
| 2026-04-23 01:36 | 23.59916 | 46.05947 | 40870 ft | 566 kts | 96° |
| 2026-04-23 01:37 | 23.59166 | 46.14481 | 40870 ft | 566 kts | 96° |
| 2026-04-23 01:37 | 23.58411 | 46.23017 | 40881 ft | 566 kts | 96° |
| 2026-04-23 01:38 | 23.57650 | 46.31555 | 40890 ft | 566 kts | 96° |
| 2026-04-23 01:38 | 23.56886 | 46.40110 | 40899 ft | 567 kts | 96° |
| 2026-04-23 01:39 | 23.56117 | 46.48649 | 40904 ft | 566 kts | 97° |
| 2026-04-23 01:39 | 23.55348 | 46.57137 | 40903 ft | 566 kts | 96° |
| 2026-04-23 01:40 | 23.54567 | 46.65680 | 40909 ft | 567 kts | 96° |
| 2026-04-23 01:40 | 23.53783 | 46.74228 | 40901 ft | 567 kts | 96° |
| 2026-04-23 01:41 | 23.52992 | 46.82782 | 40902 ft | 567 kts | 96° |
| 2026-04-23 01:41 | 23.52197 | 46.91323 | 40897 ft | 566 kts | 97° |
| 2026-04-23 01:42 | 23.51399 | 46.99855 | 40893 ft | 566 kts | 97° |
| 2026-04-23 01:42 | 23.50597 | 47.08387 | 40895 ft | 566 kts | 97° |
| 2026-04-23 01:43 | 23.49790 | 47.16917 | 40894 ft | 566 kts | 97° |
| 2026-04-23 01:43 | 23.48978 | 47.25446 | 40889 ft | 566 kts | 97° |
| 2026-04-23 01:44 | 23.48161 | 47.33976 | 40891 ft | 566 kts | 97° |
| 2026-04-23 01:44 | 23.47339 | 47.42507 | 40888 ft | 566 kts | 97° |
| 2026-04-23 01:45 | 23.46520 | 47.50972 | 40888 ft | 566 kts | 97° |
| 2026-04-23 01:45 | 23.45685 | 47.59550 | 40892 ft | 566 kts | 97° |
| 2026-04-23 01:46 | 23.44855 | 47.68019 | 40885 ft | 566 kts | 97° |
| 2026-04-23 01:46 | 23.44016 | 47.76536 | 40883 ft | 566 kts | 97° |
| 2026-04-23 01:47 | 23.43172 | 47.85063 | 40879 ft | 566 kts | 97° |
| 2026-04-23 01:47 | 23.42325 | 47.93580 | 40884 ft | 566 kts | 97° |
| 2026-04-23 01:48 | 23.41471 | 48.02100 | 40874 ft | 566 kts | 97° |
| 2026-04-23 01:48 | 23.40614 | 48.10613 | 40874 ft | 566 kts | 97° |
| 2026-04-23 01:49 | 23.39752 | 48.19133 | 40869 ft | 566 kts | 97° |
| 2026-04-23 01:49 | 23.38885 | 48.27645 | 40868 ft | 566 kts | 97° |
| 2026-04-23 01:50 | 23.38004 | 48.36161 | 40865 ft | 566 kts | 98° |
| 2026-04-23 01:50 | 23.36614 | 48.44581 | 40864 ft | 565 kts | 103° |
| 2026-04-23 01:51 | 23.34957 | 48.52938 | 40859 ft | 565 kts | 103° |
| 2026-04-23 01:51 | 23.33361 | 48.61309 | 40860 ft | 565 kts | 103° |
| 2026-04-23 01:52 | 23.31831 | 48.69712 | 40861 ft | 565 kts | 102° |
| 2026-04-23 01:52 | 23.30333 | 48.78044 | 40863 ft | 566 kts | 102° |
| 2026-04-23 01:53 | 23.28818 | 48.86443 | 40859 ft | 566 kts | 102° |
| 2026-04-23 01:53 | 23.27292 | 48.94842 | 40861 ft | 566 kts | 102° |
| 2026-04-23 01:54 | 23.25761 | 49.03238 | 40858 ft | 566 kts | 102° |
| 2026-04-23 01:54 | 23.24224 | 49.11638 | 40855 ft | 566 kts | 102° |
| 2026-04-23 01:55 | 23.22682 | 49.20041 | 40854 ft | 566 kts | 102° |
| 2026-04-23 01:55 | 23.21137 | 49.28438 | 40854 ft | 566 kts | 102° |
| 2026-04-23 01:56 | 23.19587 | 49.36828 | 40854 ft | 566 kts | 102° |
| 2026-04-23 01:56 | 23.18033 | 49.45218 | 40861 ft | 566 kts | 102° |
| 2026-04-23 01:57 | 23.16476 | 49.53603 | 40857 ft | 566 kts | 102° |
| 2026-04-23 01:57 | 23.14914 | 49.61983 | 40858 ft | 565 kts | 102° |
| 2026-04-23 01:58 | 23.13349 | 49.70353 | 40859 ft | 565 kts | 102° |
| 2026-04-23 01:58 | 23.11792 | 49.78656 | 40859 ft | 565 kts | 103° |
| 2026-04-23 01:59 | 23.10221 | 49.87010 | 40857 ft | 564 kts | 103° |
| 2026-04-23 01:59 | 23.08647 | 49.95353 | 40852 ft | 564 kts | 103° |
| 2026-04-23 02:00 | 23.07067 | 50.03706 | 40854 ft | 564 kts | 103° |
| 2026-04-23 02:00 | 23.05483 | 50.12051 | 40857 ft | 564 kts | 103° |
| 2026-04-23 02:01 | 23.03894 | 50.20397 | 40858 ft | 564 kts | 103° |
| 2026-04-23 02:01 | 23.02303 | 50.28731 | 40854 ft | 563 kts | 103° |
| 2026-04-23 02:02 | 23.00708 | 50.37063 | 40858 ft | 563 kts | 103° |
| 2026-04-23 02:02 | 22.99110 | 50.45382 | 40855 ft | 563 kts | 103° |
| 2026-04-23 02:03 | 22.97507 | 50.53707 | 40851 ft | 563 kts | 103° |
| 2026-04-23 02:03 | 22.95914 | 50.61950 | 40849 ft | 562 kts | 103° |
| 2026-04-23 02:04 | 22.94305 | 50.70257 | 40846 ft | 562 kts | 103° |
| 2026-04-23 02:04 | 22.92694 | 50.78547 | 40844 ft | 561 kts | 103° |
| 2026-04-23 02:05 | 22.91080 | 50.86826 | 40843 ft | 561 kts | 103° |
| 2026-04-23 02:05 | 22.89464 | 50.95095 | 40845 ft | 560 kts | 103° |
| 2026-04-23 02:06 | 22.87846 | 51.03350 | 40843 ft | 560 kts | 103° |
| 2026-04-23 02:06 | 22.86223 | 51.11606 | 40839 ft | 559 kts | 103° |
| 2026-04-23 02:07 | 22.84600 | 51.19839 | 40837 ft | 558 kts | 103° |
| 2026-04-23 02:07 | 22.82973 | 51.28067 | 40841 ft | 558 kts | 103° |
| 2026-04-23 02:08 | 22.81343 | 51.36293 | 40839 ft | 558 kts | 103° |
| 2026-04-23 02:08 | 22.79985 | 51.43122 | 40843 ft | 558 kts | 103° |
| 2026-04-23 02:09 | 22.78080 | 51.52679 | 40842 ft | 558 kts | 103° |
| 2026-04-23 02:09 | 22.76439 | 51.60888 | 40836 ft | 558 kts | 103° |
| 2026-04-23 02:10 | 22.75069 | 51.67722 | 40832 ft | 558 kts | 103° |
| 2026-04-23 02:10 | 22.73419 | 51.75933 | 40839 ft | 558 kts | 103° |
| 2026-04-23 02:11 | 22.71762 | 51.84153 | 40834 ft | 558 kts | 103° |
| 2026-04-23 02:11 | 22.70104 | 51.92361 | 40830 ft | 558 kts | 103° |
| 2026-04-23 02:12 | 22.68903 | 52.00652 | 40839 ft | 558 kts | 90° |
| 2026-04-23 02:12 | 22.68819 | 52.09043 | 40819 ft | 558 kts | 88° |
| 2026-04-23 02:13 | 22.68920 | 52.17446 | 40823 ft | 558 kts | 88° |
| 2026-04-23 02:13 | 22.69028 | 52.25850 | 40826 ft | 558 kts | 88° |
| 2026-04-23 02:14 | 22.69108 | 52.34243 | 40831 ft | 558 kts | 88° |
| 2026-04-23 02:14 | 22.69171 | 52.42641 | 40826 ft | 558 kts | 88° |
| 2026-04-23 02:15 | 22.69254 | 52.55233 | 40828 ft | 558 kts | 88° |
| 2026-04-23 02:16 | 22.69305 | 52.63630 | 40828 ft | 557 kts | 88° |
| 2026-04-23 02:16 | 22.69352 | 52.72031 | 40825 ft | 557 kts | 88° |
| 2026-04-23 02:17 | 22.69395 | 52.80429 | 40823 ft | 557 kts | 88° |
| 2026-04-23 02:17 | 22.69433 | 52.88818 | 40822 ft | 557 kts | 88° |
| 2026-04-23 02:18 | 22.69467 | 52.97221 | 40822 ft | 559 kts | 88° |
| 2026-04-23 02:18 | 22.69498 | 53.05700 | 40823 ft | 566 kts | 88° |
| 2026-04-23 02:19 | 22.69524 | 53.14261 | 40822 ft | 571 kts | 88° |
| 2026-04-23 02:19 | 22.69545 | 53.22825 | 40820 ft | 572 kts | 88° |
| 2026-04-23 02:20 | 22.69561 | 53.31428 | 40817 ft | 571 kts | 88° |
| 2026-04-23 02:20 | 22.69573 | 53.40028 | 40818 ft | 571 kts | 88° |
| 2026-04-23 02:21 | 22.69580 | 53.48629 | 40815 ft | 571 kts | 88° |
| 2026-04-23 02:21 | 22.69583 | 53.57224 | 40816 ft | 571 kts | 88° |
| 2026-04-23 02:22 | 22.69581 | 53.65821 | 40817 ft | 571 kts | 88° |
| 2026-04-23 02:22 | 22.69575 | 53.74421 | 40819 ft | 571 kts | 88° |
| 2026-04-23 02:23 | 22.69564 | 53.83015 | 40819 ft | 571 kts | 88° |
| 2026-04-23 02:23 | 22.69548 | 53.91615 | 40818 ft | 571 kts | 89° |
| 2026-04-23 02:24 | 22.69527 | 54.00164 | 40815 ft | 571 kts | 89° |
| 2026-04-23 02:24 | 22.69503 | 54.08763 | 40815 ft | 571 kts | 89° |
| 2026-04-23 02:25 | 22.69474 | 54.17357 | 40817 ft | 570 kts | 89° |
| 2026-04-23 02:25 | 22.69440 | 54.25955 | 40811 ft | 570 kts | 89° |
| 2026-04-23 02:26 | 22.69402 | 54.34525 | 40817 ft | 570 kts | 89° |
| 2026-04-23 02:26 | 22.69412 | 54.43105 | 40815 ft | 568 kts | 84° |
| 2026-04-23 02:27 | 22.71076 | 54.51354 | 40820 ft | 557 kts | 63° |
| 2026-04-23 02:27 | 22.74136 | 54.59040 | 40821 ft | 555 kts | 60° |
| 2026-04-23 02:28 | 22.77379 | 54.66571 | 40817 ft | 555 kts | 60° |
| 2026-04-23 02:28 | 22.80637 | 54.74149 | 40818 ft | 555 kts | 60° |
| 2026-04-23 02:29 | 22.83857 | 54.81743 | 40821 ft | 555 kts | 60° |
| 2026-04-23 02:29 | 22.87060 | 54.89351 | 40821 ft | 553 kts | 60° |
| 2026-04-23 02:30 | 22.90247 | 54.96937 | 40820 ft | 552 kts | 60° |
| 2026-04-23 02:30 | 22.93427 | 55.04514 | 40820 ft | 552 kts | 60° |
| 2026-04-23 02:31 | 22.96607 | 55.12099 | 40820 ft | 551 kts | 61° |
| 2026-04-23 02:31 | 22.99777 | 55.19672 | 40819 ft | 551 kts | 61° |
| 2026-04-23 02:32 | 23.03163 | 55.27096 | 40827 ft | 544 kts | 51° |
| 2026-04-23 02:32 | 23.05421 | 55.30332 | 40826 ft | 533 kts | 41° |
| 2026-04-23 02:32 | 23.08108 | 55.33057 | 40836 ft | 523 kts | 31° |
| 2026-04-23 02:33 | 23.13910 | 55.37782 | 40828 ft | 520 kts | 28° |
| 2026-04-23 02:33 | 23.19822 | 55.42319 | 40828 ft | 520 kts | 28° |
| 2026-04-23 02:34 | 23.25689 | 55.46832 | 40831 ft | 520 kts | 28° |
| 2026-04-23 02:34 | 23.31586 | 55.51418 | 40835 ft | 521 kts | 29° |
| 2026-04-23 02:35 | 23.37471 | 55.56019 | 40836 ft | 521 kts | 29° |
| 2026-04-23 02:35 | 23.40406 | 55.58318 | 40704 ft | 518 kts | 29° |
| 2026-04-23 02:35 | 23.43309 | 55.60597 | 40472 ft | 512 kts | 28° |
| 2026-04-23 02:35 | 23.46193 | 55.62861 | 40236 ft | 510 kts | 28° |
| 2026-04-23 02:36 | 23.49066 | 55.65114 | 40010 ft | 509 kts | 28° |
| 2026-04-23 02:36 | 23.51942 | 55.67367 | 39777 ft | 509 kts | 28° |
| 2026-04-23 02:36 | 23.54812 | 55.69617 | 39432 ft | 506 kts | 28° |
| 2026-04-23 02:36 | 23.57670 | 55.71862 | 38888 ft | 505 kts | 28° |
| 2026-04-23 02:37 | 23.60517 | 55.74098 | 38224 ft | 505 kts | 28° |
| 2026-04-23 02:37 | 23.63368 | 55.76335 | 37547 ft | 504 kts | 28° |
| 2026-04-23 02:37 | 23.66212 | 55.78564 | 36900 ft | 502 kts | 28° |
| 2026-04-23 02:37 | 23.69184 | 55.80470 | 36247 ft | 489 kts | 17° |
| 2026-04-23 02:38 | 23.72343 | 55.81678 | 35563 ft | 475 kts | 5° |
| 2026-04-23 02:38 | 23.75570 | 55.82267 | 34851 ft | 469 kts | 0° |
| 2026-04-23 02:38 | 23.78818 | 55.82679 | 34106 ft | 469 kts | 359° |
| 2026-04-23 02:38 | 23.82069 | 55.83015 | 33275 ft | 470 kts | 359° |
| 2026-04-23 02:39 | 23.85327 | 55.83320 | 32464 ft | 470 kts | 359° |
| 2026-04-23 02:39 | 23.88584 | 55.83623 | 31647 ft | 471 kts | 0° |
| 2026-04-23 02:39 | 23.91865 | 55.83937 | 30825 ft | 474 kts | 1° |
| 2026-04-23 02:39 | 23.95157 | 55.84262 | 29969 ft | 478 kts | 2° |
| 2026-04-23 02:40 | 23.98489 | 55.84603 | 28995 ft | 482 kts | 2° |
| 2026-04-23 02:40 | 24.01813 | 55.84954 | 28363 ft | 478 kts | 2° |
| 2026-04-23 02:40 | 24.05104 | 55.85306 | 27739 ft | 474 kts | 2° |
| 2026-04-23 02:40 | 24.08372 | 55.85655 | 27127 ft | 470 kts | 2° |
| 2026-04-23 02:41 | 24.11574 | 55.85996 | 26656 ft | 464 kts | 2° |
| 2026-04-23 02:41 | 24.14734 | 55.86333 | 26185 ft | 446 kts | 2° |
| 2026-04-23 02:41 | 24.17762 | 55.86657 | 25651 ft | 429 kts | 2° |
| 2026-04-23 02:41 | 24.20696 | 55.86969 | 24925 ft | 419 kts | 2° |
| 2026-04-23 02:42 | 24.23572 | 55.87270 | 24174 ft | 411 kts | 2° |
| 2026-04-23 02:42 | 24.26398 | 55.87565 | 23432 ft | 405 kts | 2° |
| 2026-04-23 02:42 | 24.29177 | 55.87910 | 22551 ft | 400 kts | 7° |
| 2026-04-23 02:42 | 24.31903 | 55.88552 | 21773 ft | 402 kts | 11° |
| 2026-04-23 02:43 | 24.34606 | 55.89276 | 21379 ft | 397 kts | 12° |
| 2026-04-23 02:43 | 24.37271 | 55.90005 | 20931 ft | 393 kts | 12° |
| 2026-04-23 02:43 | 24.39928 | 55.90737 | 20351 ft | 394 kts | 12° |
| 2026-04-23 02:43 | 24.42596 | 55.91476 | 19747 ft | 396 kts | 13° |
| 2026-04-23 02:44 | 24.45238 | 55.92212 | 19442 ft | 388 kts | 13° |
| 2026-04-23 02:44 | 24.47836 | 55.92938 | 19050 ft | 383 kts | 13° |
| 2026-04-23 02:44 | 24.50416 | 55.93659 | 18605 ft | 381 kts | 13° |
| 2026-04-23 02:44 | 24.52990 | 55.94378 | 18026 ft | 383 kts | 13° |
| 2026-04-23 02:45 | 24.55580 | 55.95103 | 17351 ft | 384 kts | 13° |
| 2026-04-23 02:45 | 24.58150 | 55.95824 | 17014 ft | 377 kts | 13° |
| 2026-04-23 02:45 | 24.60669 | 55.96530 | 16642 ft | 371 kts | 13° |
| 2026-04-23 02:45 | 24.63161 | 55.97228 | 16184 ft | 368 kts | 13° |
| 2026-04-23 02:46 | 24.65632 | 55.97922 | 15735 ft | 365 kts | 13° |
| 2026-04-23 02:46 | 24.68047 | 55.98599 | 15309 ft | 361 kts | 13° |
| 2026-04-23 02:46 | 24.70506 | 55.99289 | 14869 ft | 358 kts | 13° |
| 2026-04-23 02:46 | 24.72883 | 55.99955 | 14424 ft | 356 kts | 13° |
| 2026-04-23 02:47 | 24.75283 | 56.00628 | 13983 ft | 354 kts | 13° |
| 2026-04-23 02:47 | 24.77664 | 56.01296 | 13540 ft | 352 kts | 13° |
| 2026-04-23 02:47 | 24.80029 | 56.01961 | 13054 ft | 349 kts | 13° |
| 2026-04-23 02:47 | 24.82370 | 56.02621 | 12623 ft | 345 kts | 13° |
| 2026-04-23 02:48 | 24.84683 | 56.03160 | 12386 ft | 334 kts | 6° |
| 2026-04-23 02:48 | 24.86981 | 56.03155 | 11916 ft | 329 kts | 349° |
| 2026-04-23 02:48 | 24.89129 | 56.02377 | 11404 ft | 324 kts | 329° |
| 2026-04-23 02:48 | 24.90801 | 56.00778 | 10915 ft | 317 kts | 303° |
| 2026-04-23 02:49 | 24.91883 | 55.98730 | 10388 ft | 302 kts | 295° |
| 2026-04-23 02:49 | 24.92817 | 55.96714 | 9789 ft | 290 kts | 295° |
| 2026-04-23 02:49 | 24.93739 | 55.94745 | 9110 ft | 290 kts | 295° |
| 2026-04-23 02:49 | 24.94674 | 55.92776 | 8562 ft | 289 kts | 296° |
| 2026-04-23 02:50 | 24.95600 | 55.90851 | 8284 ft | 282 kts | 296° |
| 2026-04-23 02:50 | 24.96516 | 55.88955 | 7973 ft | 279 kts | 296° |
| 2026-04-23 02:50 | 24.97429 | 55.87068 | 7653 ft | 279 kts | 296° |
| 2026-04-23 02:50 | 24.98342 | 55.85184 | 7351 ft | 278 kts | 296° |
| 2026-04-23 02:51 | 24.99240 | 55.83334 | 7040 ft | 277 kts | 296° |
| 2026-04-23 02:51 | 25.00154 | 55.81468 | 6716 ft | 276 kts | 297° |
| 2026-04-23 02:51 | 25.01150 | 55.79657 | 6392 ft | 276 kts | 301° |
| 2026-04-23 02:51 | 25.02174 | 55.77873 | 6065 ft | 275 kts | 301° |
| 2026-04-23 02:52 | 25.03011 | 55.76406 | 5795 ft | 274 kts | 301° |
| 2026-04-23 02:52 | 25.04073 | 55.74655 | 5471 ft | 275 kts | 303° |
| 2026-04-23 02:52 | 25.05146 | 55.72906 | 5143 ft | 274 kts | 301° |
| 2026-04-23 02:52 | 25.06183 | 55.71145 | 4815 ft | 274 kts | 301° |
| 2026-04-23 02:53 | 25.07197 | 55.69372 | 4569 ft | 272 kts | 300° |
| 2026-04-23 02:53 | 25.08183 | 55.67580 | 4532 ft | 274 kts | 299° |
| 2026-04-23 02:53 | 25.09132 | 55.65798 | 4520 ft | 261 kts | 298° |
| 2026-04-23 02:53 | 25.10009 | 55.64115 | 4508 ft | 247 kts | 298° |
| 2026-04-23 02:54 | 25.10839 | 55.62519 | 4480 ft | 234 kts | 298° |
| 2026-04-23 02:54 | 25.11656 | 55.60987 | 4363 ft | 230 kts | 299° |
| 2026-04-23 02:54 | 25.12504 | 55.59501 | 4078 ft | 228 kts | 300° |
| 2026-04-23 02:54 | 25.13345 | 55.58012 | 3744 ft | 228 kts | 298° |
| 2026-04-23 02:55 | 25.14148 | 55.56555 | 3427 ft | 217 kts | 298° |
| 2026-04-23 02:55 | 25.14900 | 55.55190 | 3156 ft | 204 kts | 298° |
| 2026-04-23 02:55 | 25.15621 | 55.53890 | 2886 ft | 193 kts | 298° |
| 2026-04-23 02:55 | 25.16303 | 55.52660 | 2664 ft | 186 kts | 297° |
| 2026-04-23 02:56 | 25.16977 | 55.51445 | 2418 ft | 185 kts | 297° |
| 2026-04-23 02:56 | 25.17628 | 55.50270 | 2173 ft | 173 kts | 296° |
| 2026-04-23 02:56 | 25.18231 | 55.49177 | 1977 ft | 162 kts | 297° |
| 2026-04-23 02:56 | 25.18801 | 55.48143 | 1770 ft | 153 kts | 297° |
| 2026-04-23 02:57 | 25.19171 | 55.47475 | 1646 ft | 150 kts | 297° |
| 2026-04-23 02:57 | 25.19890 | 55.46179 | 1399 ft | 149 kts | 298° |
| 2026-04-23 02:57 | 25.20248 | 55.45536 | 1275 ft | 148 kts | 299° |
| 2026-04-23 02:57 | 25.20784 | 55.44569 | 1075 ft | 147 kts | 300° |
| 2026-04-23 02:58 | 25.21314 | 55.43611 | 896 ft | 145 kts | 300° |
| 2026-04-23 02:58 | 25.21838 | 55.42666 | 720 ft | 143 kts | 301° |
| 2026-04-23 02:58 | 25.22350 | 55.41730 | 497 ft | 141 kts | 301° |
| 2026-04-23 02:58 | 25.22847 | 55.40815 | 328 ft | 139 kts | 305° |
| 2026-04-23 02:59 | 25.23363 | 55.39906 | 140 ft | 139 kts | 302° |
| 2026-04-23 02:59 | 25.23858 | 55.38997 | 32 ft | 133 kts | 302° |
| 2026-04-23 02:59 | 25.24267 | 55.38271 | 28 ft | 84 kts | 302° |
| 2026-04-23 02:59 | 25.24520 | 55.37811 | 28 ft | 50 kts | 301° |
| 2026-04-23 03:00 | 25.24568 | 55.37714 | 28 ft | 5 kts | 292° |
| 2026-04-23 03:00 | 25.24594 | 55.37635 | 28 ft | 13 kts | 287° |
| 2026-04-23 03:00 | 25.24612 | 55.37526 | 28 ft | 14 kts | 275° |
| 2026-04-23 03:00 | 25.24610 | 55.37433 | 28 ft | 11 kts | 254° |
| 2026-04-23 03:01 | 25.24563 | 55.37403 | 28 ft | 7 kts | 156° |
| 2026-04-23 03:01 | 25.24518 | 55.37451 | 27 ft | 10 kts | 123° |
| 2026-04-23 03:01 | 25.24476 | 55.37527 | 28 ft | 13 kts | 122° |
| 2026-04-23 03:01 | 25.24422 | 55.37621 | 28 ft | 16 kts | 122° |
| 2026-04-23 03:02 | 25.24358 | 55.37732 | 28 ft | 18 kts | 122° |
| 2026-04-23 03:02 | 25.24278 | 55.37774 | 28 ft | 14 kts | 194° |
| 2026-04-23 03:02 | 25.24186 | 55.37720 | 28 ft | 16 kts | 209° |
| 2026-04-23 03:02 | 25.24084 | 55.37647 | 28 ft | 19 kts | 211° |
| 2026-04-23 03:03 | 25.23988 | 55.37564 | 28 ft | 17 kts | 234° |
| 2026-04-23 03:03 | 25.23982 | 55.37435 | 28 ft | 18 kts | 295° |
| 2026-04-23 03:03 | 25.24048 | 55.37312 | 28 ft | 15 kts | 302° |
| 2026-04-23 03:03 | 25.24080 | 55.37280 | 28 ft | 0 kts | 354° |
| 2026-04-23 03:04 | 25.24094 | 55.37287 | 28 ft | 5 kts | 26° |
| 2026-04-23 03:04 | 25.24131 | 55.37308 | 28 ft | 5 kts | 30° |
| 2026-04-23 03:04 | 25.24158 | 55.37325 | 29 ft | 0 kts | 31° |
| 2026-04-23 03:04 | 25.24157 | 55.37325 | 29 ft | 0 kts | 31° |